sensor_id;sensor_type;location;lat;lon;timestamp;temperature;humidity
11093;DHT22;5600;50.864;6.102;2024-01-10T00:02:45;-8.20;99.90
11093;DHT22;5600;50.864;6.102;2024-01-10T00:05:46;-8.20;99.90
11093;DHT22;5600;50.864;6.102;2024-01-10T00:08:47;-8.20;99.90
11093;DHT22;5600;50.864;6.102;2024-01-10T00:11:47;-8.20;99.90
11093;DHT22;5600;50.864;6.102;2024-01-10T00:14:48;-8.20;99.90
11093;DHT22;5600;50.864;6.102;2024-01-10T00:17:49;-8.10;99.90
11093;DHT22;5600;50.864;6.102;2024-01-10T00:20:51;-8.00;99.90
11093;DHT22;5600;50.864;6.102;2024-01-10T00:23:54;-8.00;99.90
11093;DHT22;5600;50.864;6.102;2024-01-10T00:26:55;-7.90;99.90
11093;DHT22;5600;50.864;6.102;2024-01-10T00:29:55;-7.90;99.90
11093;DHT22;5600;50.864;6.102;2024-01-10T00:32:57;-7.90;99.90
11093;DHT22;5600;50.864;6.102;2024-01-10T00:35:58;-7.80;99.90
11093;DHT22;5600;50.864;6.102;2024-01-10T00:38:59;-7.80;99.90
11093;DHT22;5600;50.864;6.102;2024-01-10T00:42:00;-7.80;99.90
11093;DHT22;5600;50.864;6.102;2024-01-10T00:45:00;-7.80;99.90
11093;DHT22;5600;50.864;6.102;2024-01-10T00:48:01;-7.80;99.90
11093;DHT22;5600;50.864;6.102;2024-01-10T00:51:02;-7.80;99.90
11093;DHT22;5600;50.864;6.102;2024-01-10T00:54:03;-7.80;99.90
11093;DHT22;5600;50.864;6.102;2024-01-10T00:57:03;-7.90;99.90
11093;DHT22;5600;50.864;6.102;2024-01-10T01:00:08;-7.90;99.90
11093;DHT22;5600;50.864;6.102;2024-01-10T01:03:09;-7.90;99.90
11093;DHT22;5600;50.864;6.102;2024-01-10T01:06:10;-7.90;99.90
11093;DHT22;5600;50.864;6.102;2024-01-10T01:09:11;-7.90;99.90
11093;DHT22;5600;50.864;6.102;2024-01-10T01:12:14;-7.90;99.90
11093;DHT22;5600;50.864;6.102;2024-01-10T01:15:15;-8.00;99.90
11093;DHT22;5600;50.864;6.102;2024-01-10T01:18:15;-8.00;99.90
11093;DHT22;5600;50.864;6.102;2024-01-10T01:21:16;-8.00;99.90
11093;DHT22;5600;50.864;6.102;2024-01-10T01:24:17;-8.00;99.90
11093;DHT22;5600;50.864;6.102;2024-01-10T01:27:18;-8.00;99.90
11093;DHT22;5600;50.864;6.102;2024-01-10T01:30:18;-8.10;99.90
11093;DHT22;5600;50.864;6.102;2024-01-10T01:33:22;-8.10;99.90
11093;DHT22;5600;50.864;6.102;2024-01-10T01:36:22;-8.20;99.90
11093;DHT22;5600;50.864;6.102;2024-01-10T01:39:23;-8.20;99.90
11093;DHT22;5600;50.864;6.102;2024-01-10T01:42:24;-8.20;99.90
11093;DHT22;5600;50.864;6.102;2024-01-10T01:45:24;-8.20;99.90
11093;DHT22;5600;50.864;6.102;2024-01-10T01:48:25;-8.30;99.90
11093;DHT22;5600;50.864;6.102;2024-01-10T01:51:28;-8.30;99.90
11093;DHT22;5600;50.864;6.102;2024-01-10T01:54:31;-8.30;99.90
11093;DHT22;5600;50.864;6.102;2024-01-10T01:57:32;-8.30;99.90
11093;DHT22;5600;50.864;6.102;2024-01-10T02:00:34;-8.30;99.90
11093;DHT22;5600;50.864;6.102;2024-01-10T02:03:35;-8.30;99.90
11093;DHT22;5600;50.864;6.102;2024-01-10T02:06:36;-8.40;99.90
11093;DHT22;5600;50.864;6.102;2024-01-10T02:09:36;-8.40;99.90
11093;DHT22;5600;50.864;6.102;2024-01-10T02:12:37;-8.40;99.90
11093;DHT22;5600;50.864;6.102;2024-01-10T02:15:38;-8.40;99.90
11093;DHT22;5600;50.864;6.102;2024-01-10T02:18:40;-8.50;99.90
11093;DHT22;5600;50.864;6.102;2024-01-10T02:21:41;-8.50;99.90
11093;DHT22;5600;50.864;6.102;2024-01-10T02:24:43;-8.40;99.90
11093;DHT22;5600;50.864;6.102;2024-01-10T02:27:43;-8.40;99.90
11093;DHT22;5600;50.864;6.102;2024-01-10T02:30:44;-8.50;99.90
11093;DHT22;5600;50.864;6.102;2024-01-10T02:33:45;-8.50;99.90
11093;DHT22;5600;50.864;6.102;2024-01-10T02:36:46;-8.50;99.90
11093;DHT22;5600;50.864;6.102;2024-01-10T02:39:46;-8.50;99.90
11093;DHT22;5600;50.864;6.102;2024-01-10T02:42:47;-8.50;99.90
11093;DHT22;5600;50.864;6.102;2024-01-10T02:45:48;-8.50;99.90
11093;DHT22;5600;50.864;6.102;2024-01-10T02:48:49;-8.50;99.90
11093;DHT22;5600;50.864;6.102;2024-01-10T02:51:49;-8.50;99.90
11093;DHT22;5600;50.864;6.102;2024-01-10T02:54:50;-8.50;99.90
11093;DHT22;5600;50.864;6.102;2024-01-10T02:57:51;-8.50;99.90
11093;DHT22;5600;50.864;6.102;2024-01-10T03:00:51;-8.60;99.90
11093;DHT22;5600;50.864;6.102;2024-01-10T03:03:52;-8.50;99.90
11093;DHT22;5600;50.864;6.102;2024-01-10T03:06:53;-8.50;99.90
11093;DHT22;5600;50.864;6.102;2024-01-10T03:09:53;-8.60;99.90
11093;DHT22;5600;50.864;6.102;2024-01-10T03:12:54;-8.50;99.90
11093;DHT22;5600;50.864;6.102;2024-01-10T03:15:55;-8.50;99.90
11093;DHT22;5600;50.864;6.102;2024-01-10T03:18:56;-8.50;99.90
11093;DHT22;5600;50.864;6.102;2024-01-10T03:21:56;-8.50;99.90
11093;DHT22;5600;50.864;6.102;2024-01-10T03:24:57;-8.50;99.90
11093;DHT22;5600;50.864;6.102;2024-01-10T03:27:58;-8.50;99.90
11093;DHT22;5600;50.864;6.102;2024-01-10T03:30:58;-8.50;99.90
11093;DHT22;5600;50.864;6.102;2024-01-10T03:33:59;-8.50;99.90
11093;DHT22;5600;50.864;6.102;2024-01-10T03:37:00;-8.60;99.90
11093;DHT22;5600;50.864;6.102;2024-01-10T03:40:00;-8.60;99.90
11093;DHT22;5600;50.864;6.102;2024-01-10T03:43:01;-8.60;99.90
11093;DHT22;5600;50.864;6.102;2024-01-10T03:46:02;-8.50;99.90
11093;DHT22;5600;50.864;6.102;2024-01-10T03:49:02;-8.50;99.90
11093;DHT22;5600;50.864;6.102;2024-01-10T03:52:03;-8.50;99.90
11093;DHT22;5600;50.864;6.102;2024-01-10T03:55:04;-8.40;99.90
11093;DHT22;5600;50.864;6.102;2024-01-10T03:58:05;-8.30;99.90
11093;DHT22;5600;50.864;6.102;2024-01-10T04:01:09;-8.30;99.90
11093;DHT22;5600;50.864;6.102;2024-01-10T04:04:10;-8.30;99.90
11093;DHT22;5600;50.864;6.102;2024-01-10T04:07:11;-8.30;99.90
11093;DHT22;5600;50.864;6.102;2024-01-10T04:10:13;-8.30;99.90
11093;DHT22;5600;50.864;6.102;2024-01-10T04:13:14;-8.30;99.90
11093;DHT22;5600;50.864;6.102;2024-01-10T04:16:15;-8.30;99.90
11093;DHT22;5600;50.864;6.102;2024-01-10T04:19:15;-8.30;99.90
11093;DHT22;5600;50.864;6.102;2024-01-10T04:22:16;-8.00;99.90
11093;DHT22;5600;50.864;6.102;2024-01-10T04:25:17;-8.00;99.90
11093;DHT22;5600;50.864;6.102;2024-01-10T04:28:17;-7.90;99.90
11093;DHT22;5600;50.864;6.102;2024-01-10T04:31:18;-7.90;99.90
11093;DHT22;5600;50.864;6.102;2024-01-10T04:34:19;-7.90;99.90
11093;DHT22;5600;50.864;6.102;2024-01-10T04:37:20;-7.80;99.90
11093;DHT22;5600;50.864;6.102;2024-01-10T04:40:20;-7.70;99.90
11093;DHT22;5600;50.864;6.102;2024-01-10T04:43:21;-7.50;99.90
11093;DHT22;5600;50.864;6.102;2024-01-10T04:46:22;-7.30;99.90
11093;DHT22;5600;50.864;6.102;2024-01-10T04:49:22;-7.30;99.90
11093;DHT22;5600;50.864;6.102;2024-01-10T04:52:23;-7.20;99.90
11093;DHT22;5600;50.864;6.102;2024-01-10T04:55:24;-6.60;99.90
11093;DHT22;5600;50.864;6.102;2024-01-10T04:58:25;-7.00;99.90
11093;DHT22;5600;50.864;6.102;2024-01-10T05:01:25;-7.10;99.90
11093;DHT22;5600;50.864;6.102;2024-01-10T05:04:26;-7.10;99.90
11093;DHT22;5600;50.864;6.102;2024-01-10T05:07:27;-7.20;99.90
11093;DHT22;5600;50.864;6.102;2024-01-10T05:10:28;-7.20;99.90
11093;DHT22;5600;50.864;6.102;2024-01-10T05:13:28;-7.20;99.90
11093;DHT22;5600;50.864;6.102;2024-01-10T05:16:29;-7.20;99.90
11093;DHT22;5600;50.864;6.102;2024-01-10T05:19:30;-7.10;99.90
11093;DHT22;5600;50.864;6.102;2024-01-10T05:22:31;-7.10;99.90
11093;DHT22;5600;50.864;6.102;2024-01-10T05:25:31;-7.20;99.90
11093;DHT22;5600;50.864;6.102;2024-01-10T05:28:32;-7.40;99.90
11093;DHT22;5600;50.864;6.102;2024-01-10T05:31:33;-7.40;99.90
11093;DHT22;5600;50.864;6.102;2024-01-10T05:34:34;-7.40;99.90
11093;DHT22;5600;50.864;6.102;2024-01-10T05:37:34;-7.30;99.90
11093;DHT22;5600;50.864;6.102;2024-01-10T05:40:35;-7.20;99.90
11093;DHT22;5600;50.864;6.102;2024-01-10T05:43:36;-7.20;99.90
11093;DHT22;5600;50.864;6.102;2024-01-10T05:46:37;-7.30;99.90
11093;DHT22;5600;50.864;6.102;2024-01-10T05:49:37;-7.30;99.90
11093;DHT22;5600;50.864;6.102;2024-01-10T05:52:38;-7.40;99.90
11093;DHT22;5600;50.864;6.102;2024-01-10T05:55:39;-7.40;99.90
11093;DHT22;5600;50.864;6.102;2024-01-10T05:58:39;-7.60;99.90
11093;DHT22;5600;50.864;6.102;2024-01-10T06:01:40;-7.60;99.90
11093;DHT22;5600;50.864;6.102;2024-01-10T06:04:41;-7.60;99.90
11093;DHT22;5600;50.864;6.102;2024-01-10T06:07:41;-7.60;99.90
11093;DHT22;5600;50.864;6.102;2024-01-10T06:10:42;-7.60;99.90
11093;DHT22;5600;50.864;6.102;2024-01-10T06:13:43;-7.70;99.90
11093;DHT22;5600;50.864;6.102;2024-01-10T06:16:44;-7.60;99.90
11093;DHT22;5600;50.864;6.102;2024-01-10T06:19:49;-7.60;99.90
11093;DHT22;5600;50.864;6.102;2024-01-10T06:22:50;-7.60;99.90
11093;DHT22;5600;50.864;6.102;2024-01-10T06:25:51;-7.60;99.90
11093;DHT22;5600;50.864;6.102;2024-01-10T06:28:51;-7.60;99.90
11093;DHT22;5600;50.864;6.102;2024-01-10T06:31:52;-7.60;99.90
11093;DHT22;5600;50.864;6.102;2024-01-10T06:34:53;-7.60;99.90
11093;DHT22;5600;50.864;6.102;2024-01-10T06:37:54;-7.40;99.90
11093;DHT22;5600;50.864;6.102;2024-01-10T06:40:55;-7.50;99.90
11093;DHT22;5600;50.864;6.102;2024-01-10T06:43:55;-7.40;99.90
11093;DHT22;5600;50.864;6.102;2024-01-10T06:46:56;-7.40;99.90
11093;DHT22;5600;50.864;6.102;2024-01-10T06:52:58;-7.30;99.90
11093;DHT22;5600;50.864;6.102;2024-01-10T06:55:59;-7.20;99.90
11093;DHT22;5600;50.864;6.102;2024-01-10T06:59:00;-7.20;99.90
11093;DHT22;5600;50.864;6.102;2024-01-10T07:02:01;-7.00;99.90
11093;DHT22;5600;50.864;6.102;2024-01-10T07:05:02;-7.00;99.90
11093;DHT22;5600;50.864;6.102;2024-01-10T07:08:03;-6.90;99.90
11093;DHT22;5600;50.864;6.102;2024-01-10T07:11:04;-6.90;99.90
11093;DHT22;5600;50.864;6.102;2024-01-10T07:14:05;-6.70;99.90
11093;DHT22;5600;50.864;6.102;2024-01-10T07:17:06;-6.70;99.90
11093;DHT22;5600;50.864;6.102;2024-01-10T07:20:07;-6.70;99.90
11093;DHT22;5600;50.864;6.102;2024-01-10T07:23:09;-6.70;99.90
11093;DHT22;5600;50.864;6.102;2024-01-10T07:26:13;-6.60;99.90
11093;DHT22;5600;50.864;6.102;2024-01-10T07:29:15;-6.70;99.90
11093;DHT22;5600;50.864;6.102;2024-01-10T07:32:15;-6.60;99.90
11093;DHT22;5600;50.864;6.102;2024-01-10T07:35:16;-6.60;99.90
11093;DHT22;5600;50.864;6.102;2024-01-10T07:38:17;-6.60;99.90
11093;DHT22;5600;50.864;6.102;2024-01-10T07:41:17;-6.70;99.90
11093;DHT22;5600;50.864;6.102;2024-01-10T07:44:18;-6.70;99.90
11093;DHT22;5600;50.864;6.102;2024-01-10T07:47:19;-6.80;99.90
11093;DHT22;5600;50.864;6.102;2024-01-10T07:50:20;-7.00;99.90
11093;DHT22;5600;50.864;6.102;2024-01-10T07:53:20;-7.00;99.90
11093;DHT22;5600;50.864;6.102;2024-01-10T07:56:21;-7.10;99.90
11093;DHT22;5600;50.864;6.102;2024-01-10T07:59:22;-7.20;99.90
11093;DHT22;5600;50.864;6.102;2024-01-10T08:02:24;-7.20;99.90
11093;DHT22;5600;50.864;6.102;2024-01-10T08:05:24;-7.20;99.90
11093;DHT22;5600;50.864;6.102;2024-01-10T08:08:25;-7.20;99.90
11093;DHT22;5600;50.864;6.102;2024-01-10T08:11:26;-7.20;99.90
11093;DHT22;5600;50.864;6.102;2024-01-10T08:14:26;-7.20;99.90
11093;DHT22;5600;50.864;6.102;2024-01-10T08:17:27;-7.10;99.90
11093;DHT22;5600;50.864;6.102;2024-01-10T08:20:28;-7.00;99.90
11093;DHT22;5600;50.864;6.102;2024-01-10T08:23:29;-6.90;99.90
11093;DHT22;5600;50.864;6.102;2024-01-10T08:26:30;-6.80;99.90
11093;DHT22;5600;50.864;6.102;2024-01-10T08:29:31;-6.70;99.90
11093;DHT22;5600;50.864;6.102;2024-01-10T08:32:32;-6.40;99.90
11093;DHT22;5600;50.864;6.102;2024-01-10T08:35:33;-6.40;99.90
11093;DHT22;5600;50.864;6.102;2024-01-10T08:38:34;-6.10;99.90
11093;DHT22;5600;50.864;6.102;2024-01-10T08:41:35;-6.10;99.90
11093;DHT22;5600;50.864;6.102;2024-01-10T08:44:37;-5.90;99.90
11093;DHT22;5600;50.864;6.102;2024-01-10T08:47:38;-5.50;99.90
11093;DHT22;5600;50.864;6.102;2024-01-10T08:50:39;-5.00;99.90
11093;DHT22;5600;50.864;6.102;2024-01-10T08:53:40;-4.60;99.90
11093;DHT22;5600;50.864;6.102;2024-01-10T08:56:40;-4.40;99.90
11093;DHT22;5600;50.864;6.102;2024-01-10T08:59:41;-4.30;99.90
11093;DHT22;5600;50.864;6.102;2024-01-10T09:02:42;-4.30;99.90
11093;DHT22;5600;50.864;6.102;2024-01-10T09:05:43;-4.20;99.90
11093;DHT22;5600;50.864;6.102;2024-01-10T09:08:44;-3.90;99.90
11093;DHT22;5600;50.864;6.102;2024-01-10T09:11:45;-3.90;99.90
11093;DHT22;5600;50.864;6.102;2024-01-10T09:14:45;-3.70;99.90
11093;DHT22;5600;50.864;6.102;2024-01-10T09:17:46;-3.50;99.90
11093;DHT22;5600;50.864;6.102;2024-01-10T09:20:47;-3.20;99.90
11093;DHT22;5600;50.864;6.102;2024-01-10T09:23:48;-2.90;99.90
11093;DHT22;5600;50.864;6.102;2024-01-10T09:26:52;-2.80;99.90
11093;DHT22;5600;50.864;6.102;2024-01-10T09:29:54;-2.70;99.90
11093;DHT22;5600;50.864;6.102;2024-01-10T09:32:54;-3.00;99.90
11093;DHT22;5600;50.864;6.102;2024-01-10T09:35:56;-3.20;99.90
11093;DHT22;5600;50.864;6.102;2024-01-10T09:38:57;-3.40;99.90
11093;DHT22;5600;50.864;6.102;2024-01-10T09:41:58;-3.60;99.90
11093;DHT22;5600;50.864;6.102;2024-01-10T09:44:59;-3.60;99.90
11093;DHT22;5600;50.864;6.102;2024-01-10T09:48:00;-3.80;99.90
11093;DHT22;5600;50.864;6.102;2024-01-10T09:51:01;-3.90;99.90
11093;DHT22;5600;50.864;6.102;2024-01-10T09:54:03;-3.90;99.90
11093;DHT22;5600;50.864;6.102;2024-01-10T09:57:05;-3.90;99.90
11093;DHT22;5600;50.864;6.102;2024-01-10T10:00:06;-3.90;99.90
11093;DHT22;5600;50.864;6.102;2024-01-10T10:03:11;-3.90;99.90
11093;DHT22;5600;50.864;6.102;2024-01-10T10:06:12;-3.80;99.90
11093;DHT22;5600;50.864;6.102;2024-01-10T10:09:14;-3.60;99.90
11093;DHT22;5600;50.864;6.102;2024-01-10T10:12:15;-3.50;99.90
11093;DHT22;5600;50.864;6.102;2024-01-10T10:15:17;-3.50;99.90
11093;DHT22;5600;50.864;6.102;2024-01-10T10:18:21;-3.40;99.90
11093;DHT22;5600;50.864;6.102;2024-01-10T10:21:25;-3.40;99.90
11093;DHT22;5600;50.864;6.102;2024-01-10T10:24:29;-3.30;99.90
11093;DHT22;5600;50.864;6.102;2024-01-10T10:27:29;-3.20;99.90
11093;DHT22;5600;50.864;6.102;2024-01-10T10:30:31;-3.10;99.90
11093;DHT22;5600;50.864;6.102;2024-01-10T10:33:32;-2.90;99.90
11093;DHT22;5600;50.864;6.102;2024-01-10T10:36:34;-1.90;99.90
11093;DHT22;5600;50.864;6.102;2024-01-10T10:39:34;-2.70;99.90
11093;DHT22;5600;50.864;6.102;2024-01-10T10:42:38;-2.60;99.90
11093;DHT22;5600;50.864;6.102;2024-01-10T10:45:47;-2.40;99.90
11093;DHT22;5600;50.864;6.102;2024-01-10T10:48:48;-2.40;99.90
11093;DHT22;5600;50.864;6.102;2024-01-10T10:51:50;-2.40;99.90
11093;DHT22;5600;50.864;6.102;2024-01-10T10:54:52;-2.40;99.90
11093;DHT22;5600;50.864;6.102;2024-01-10T10:57:56;-2.40;99.90
11093;DHT22;5600;50.864;6.102;2024-01-10T11:00:58;-2.40;99.90
11093;DHT22;5600;50.864;6.102;2024-01-10T11:04:00;-2.50;99.90
11093;DHT22;5600;50.864;6.102;2024-01-10T11:07:00;-2.40;99.90
11093;DHT22;5600;50.864;6.102;2024-01-10T11:13:25;-2.20;99.90
11093;DHT22;5600;50.864;6.102;2024-01-10T11:26:14;-2.40;99.90
11093;DHT22;5600;50.864;6.102;2024-01-10T11:29:15;-2.50;99.90
11093;DHT22;5600;50.864;6.102;2024-01-10T11:32:17;-2.70;99.90
11093;DHT22;5600;50.864;6.102;2024-01-10T11:35:21;-2.70;99.90
11093;DHT22;5600;50.864;6.102;2024-01-10T11:38:21;-2.60;99.90
11093;DHT22;5600;50.864;6.102;2024-01-10T11:41:24;-2.70;99.90
11093;DHT22;5600;50.864;6.102;2024-01-10T11:44:28;-2.70;99.90
11093;DHT22;5600;50.864;6.102;2024-01-10T11:47:29;-2.70;99.90
11093;DHT22;5600;50.864;6.102;2024-01-10T11:50:30;-2.70;99.90
11093;DHT22;5600;50.864;6.102;2024-01-10T11:53:39;-2.70;99.90
11093;DHT22;5600;50.864;6.102;2024-01-10T11:56:43;-2.70;99.90
11093;DHT22;5600;50.864;6.102;2024-01-10T11:59:45;-2.60;99.90
11093;DHT22;5600;50.864;6.102;2024-01-10T12:02:46;-2.60;99.90
11093;DHT22;5600;50.864;6.102;2024-01-10T12:05:48;-2.50;99.90
11093;DHT22;5600;50.864;6.102;2024-01-10T12:08:50;-2.30;99.90
11093;DHT22;5600;50.864;6.102;2024-01-10T12:11:51;-2.30;99.90
11093;DHT22;5600;50.864;6.102;2024-01-10T12:14:51;-2.10;99.90
11093;DHT22;5600;50.864;6.102;2024-01-10T12:17:52;-2.00;99.90
11093;DHT22;5600;50.864;6.102;2024-01-10T12:20:53;-1.90;99.90
11093;DHT22;5600;50.864;6.102;2024-01-10T12:23:53;-1.90;99.90
11093;DHT22;5600;50.864;6.102;2024-01-10T12:26:55;-1.80;99.90
11093;DHT22;5600;50.864;6.102;2024-01-10T12:29:56;-1.80;99.90
11093;DHT22;5600;50.864;6.102;2024-01-10T12:33:03;-1.70;99.90
11093;DHT22;5600;50.864;6.102;2024-01-10T12:36:08;-1.60;99.90
11093;DHT22;5600;50.864;6.102;2024-01-10T12:39:11;-1.50;99.90
11093;DHT22;5600;50.864;6.102;2024-01-10T12:42:12;-1.60;99.90
11093;DHT22;5600;50.864;6.102;2024-01-10T12:45:22;-1.70;99.90
11093;DHT22;5600;50.864;6.102;2024-01-10T12:48:23;-1.60;99.90
11093;DHT22;5600;50.864;6.102;2024-01-10T12:51:24;-1.50;99.90
11093;DHT22;5600;50.864;6.102;2024-01-10T12:54:25;-1.50;99.90
11093;DHT22;5600;50.864;6.102;2024-01-10T12:57:25;-1.50;99.90
11093;DHT22;5600;50.864;6.102;2024-01-10T13:00:26;-1.50;99.90
11093;DHT22;5600;50.864;6.102;2024-01-10T13:03:27;-1.50;99.90
11093;DHT22;5600;50.864;6.102;2024-01-10T13:06:28;-1.50;99.90
11093;DHT22;5600;50.864;6.102;2024-01-10T13:09:28;-1.50;99.90
11093;DHT22;5600;50.864;6.102;2024-01-10T13:12:29;-1.50;99.90
11093;DHT22;5600;50.864;6.102;2024-01-10T13:15:30;-1.60;99.90
11093;DHT22;5600;50.864;6.102;2024-01-10T13:18:31;-1.60;99.90
11093;DHT22;5600;50.864;6.102;2024-01-10T13:21:32;-1.60;99.90
11093;DHT22;5600;50.864;6.102;2024-01-10T13:24:32;-1.50;99.90
11093;DHT22;5600;50.864;6.102;2024-01-10T13:27:33;-1.40;99.90
11093;DHT22;5600;50.864;6.102;2024-01-10T13:30:34;-1.30;99.90
11093;DHT22;5600;50.864;6.102;2024-01-10T13:33:36;-1.10;99.90
11093;DHT22;5600;50.864;6.102;2024-01-10T13:36:37;-0.90;99.90
11093;DHT22;5600;50.864;6.102;2024-01-10T13:39:40;-0.90;99.90
11093;DHT22;5600;50.864;6.102;2024-01-10T13:42:42;-0.80;99.90
11093;DHT22;5600;50.864;6.102;2024-01-10T13:45:43;-0.90;99.90
11093;DHT22;5600;50.864;6.102;2024-01-10T13:48:44;-0.90;99.90
11093;DHT22;5600;50.864;6.102;2024-01-10T13:51:45;-0.90;99.90
11093;DHT22;5600;50.864;6.102;2024-01-10T13:54:45;-0.90;99.90
11093;DHT22;5600;50.864;6.102;2024-01-10T13:57:46;-0.90;99.90
11093;DHT22;5600;50.864;6.102;2024-01-10T14:00:47;-0.90;99.90
11093;DHT22;5600;50.864;6.102;2024-01-10T14:03:47;-1.60;99.90
11093;DHT22;5600;50.864;6.102;2024-01-10T14:06:48;-1.50;99.90
11093;DHT22;5600;50.864;6.102;2024-01-10T14:09:49;-1.00;99.90
11093;DHT22;5600;50.864;6.102;2024-01-10T14:12:50;-1.00;99.90
11093;DHT22;5600;50.864;6.102;2024-01-10T14:15:51;-1.00;99.90
11093;DHT22;5600;50.864;6.102;2024-01-10T14:18:52;0.60;99.90
11093;DHT22;5600;50.864;6.102;2024-01-10T14:21:53;-1.00;99.90
11093;DHT22;5600;50.864;6.102;2024-01-10T14:24:53;-1.10;99.90
11093;DHT22;5600;50.864;6.102;2024-01-10T14:27:57;-1.10;99.90
11093;DHT22;5600;50.864;6.102;2024-01-10T14:30:59;-1.10;99.90
11093;DHT22;5600;50.864;6.102;2024-01-10T14:34:00;-1.00;99.90
11093;DHT22;5600;50.864;6.102;2024-01-10T14:37:01;-0.20;99.90
11093;DHT22;5600;50.864;6.102;2024-01-10T14:40:02;-1.00;99.90
11093;DHT22;5600;50.864;6.102;2024-01-10T14:43:03;-0.90;99.90
11093;DHT22;5600;50.864;6.102;2024-01-10T14:46:05;-0.90;99.90
11093;DHT22;5600;50.864;6.102;2024-01-10T14:49:08;-0.90;99.90
11093;DHT22;5600;50.864;6.102;2024-01-10T14:52:09;-0.70;99.90
11093;DHT22;5600;50.864;6.102;2024-01-10T14:55:10;-0.70;99.90
11093;DHT22;5600;50.864;6.102;2024-01-10T14:58:10;-0.70;99.90
11093;DHT22;5600;50.864;6.102;2024-01-10T15:01:11;-0.70;99.90
11093;DHT22;5600;50.864;6.102;2024-01-10T15:04:13;-0.80;99.90
11093;DHT22;5600;50.864;6.102;2024-01-10T15:07:14;-0.90;99.90
11093;DHT22;5600;50.864;6.102;2024-01-10T15:10:15;-1.00;99.90
11093;DHT22;5600;50.864;6.102;2024-01-10T15:13:16;-1.10;99.90
11093;DHT22;5600;50.864;6.102;2024-01-10T15:16:18;-1.20;99.90
11093;DHT22;5600;50.864;6.102;2024-01-10T15:19:20;-1.30;99.90
11093;DHT22;5600;50.864;6.102;2024-01-10T15:22:22;-1.30;99.90
11093;DHT22;5600;50.864;6.102;2024-01-10T15:25:26;-1.20;99.90
11093;DHT22;5600;50.864;6.102;2024-01-10T15:28:27;-1.30;99.90
11093;DHT22;5600;50.864;6.102;2024-01-10T15:31:28;-1.30;99.90
11093;DHT22;5600;50.864;6.102;2024-01-10T15:34:29;-1.40;99.90
11093;DHT22;5600;50.864;6.102;2024-01-10T15:40:35;-1.40;99.90
11093;DHT22;5600;50.864;6.102;2024-01-10T15:43:36;-1.40;99.90
11093;DHT22;5600;50.864;6.102;2024-01-10T15:46:37;-1.40;99.90
11093;DHT22;5600;50.864;6.102;2024-01-10T15:49:38;-1.60;99.90
11093;DHT22;5600;50.864;6.102;2024-01-10T15:52:40;-1.70;99.90
11093;DHT22;5600;50.864;6.102;2024-01-10T15:55:41;-1.70;99.90
11093;DHT22;5600;50.864;6.102;2024-01-10T15:58:41;-1.90;99.90
11093;DHT22;5600;50.864;6.102;2024-01-10T16:01:42;-1.90;99.90
11093;DHT22;5600;50.864;6.102;2024-01-10T16:04:43;-1.90;99.90
11093;DHT22;5600;50.864;6.102;2024-01-10T16:07:44;-2.00;99.90
11093;DHT22;5600;50.864;6.102;2024-01-10T16:10:45;-2.10;99.90
11093;DHT22;5600;50.864;6.102;2024-01-10T16:13:45;-2.10;99.90
11093;DHT22;5600;50.864;6.102;2024-01-10T16:16:46;-2.10;99.90
11093;DHT22;5600;50.864;6.102;2024-01-10T16:19:47;-2.20;99.90
11093;DHT22;5600;50.864;6.102;2024-01-10T16:22:48;-2.30;99.90
11093;DHT22;5600;50.864;6.102;2024-01-10T16:25:49;-2.30;99.90
11093;DHT22;5600;50.864;6.102;2024-01-10T16:28:49;-2.40;99.90
11093;DHT22;5600;50.864;6.102;2024-01-10T16:31:51;-2.40;99.90
11093;DHT22;5600;50.864;6.102;2024-01-10T16:34:51;-2.50;99.90
11093;DHT22;5600;50.864;6.102;2024-01-10T16:37:52;-2.50;99.90
11093;DHT22;5600;50.864;6.102;2024-01-10T16:40:53;-2.60;99.90
11093;DHT22;5600;50.864;6.102;2024-01-10T16:43:53;-2.60;99.90
11093;DHT22;5600;50.864;6.102;2024-01-10T16:46:54;-2.90;99.90
11093;DHT22;5600;50.864;6.102;2024-01-10T16:49:55;-2.60;99.90
11093;DHT22;5600;50.864;6.102;2024-01-10T16:52:57;-2.70;99.90
11093;DHT22;5600;50.864;6.102;2024-01-10T16:55:58;-2.80;99.90
11093;DHT22;5600;50.864;6.102;2024-01-10T16:58:58;-2.80;99.90
11093;DHT22;5600;50.864;6.102;2024-01-10T17:01:59;-2.90;99.90
11093;DHT22;5600;50.864;6.102;2024-01-10T17:05:01;-2.90;99.90
11093;DHT22;5600;50.864;6.102;2024-01-10T17:08:04;-2.90;99.90
11093;DHT22;5600;50.864;6.102;2024-01-10T17:11:05;-3.00;99.90
11093;DHT22;5600;50.864;6.102;2024-01-10T17:14:05;-3.00;99.90
11093;DHT22;5600;50.864;6.102;2024-01-10T17:17:06;-3.10;99.90
11093;DHT22;5600;50.864;6.102;2024-01-10T17:20:07;-3.10;99.90
11093;DHT22;5600;50.864;6.102;2024-01-10T17:23:11;-3.20;99.90
11093;DHT22;5600;50.864;6.102;2024-01-10T17:26:13;-3.20;99.90
11093;DHT22;5600;50.864;6.102;2024-01-10T17:29:14;-3.20;99.90
11093;DHT22;5600;50.864;6.102;2024-01-10T17:32:15;-3.20;99.90
11093;DHT22;5600;50.864;6.102;2024-01-10T17:35:16;-3.30;99.90
11093;DHT22;5600;50.864;6.102;2024-01-10T17:38:17;-2.10;99.90
11093;DHT22;5600;50.864;6.102;2024-01-10T17:41:18;-3.30;99.90
11093;DHT22;5600;50.864;6.102;2024-01-10T17:44:19;-3.40;99.90
11093;DHT22;5600;50.864;6.102;2024-01-10T17:47:21;-3.50;99.90
11093;DHT22;5600;50.864;6.102;2024-01-10T17:50:23;-3.70;99.90
11093;DHT22;5600;50.864;6.102;2024-01-10T17:53:26;-3.60;99.90
11093;DHT22;5600;50.864;6.102;2024-01-10T17:56:27;-3.70;99.90
11093;DHT22;5600;50.864;6.102;2024-01-10T17:59:28;-3.70;99.90
11093;DHT22;5600;50.864;6.102;2024-01-10T18:02:30;-3.70;99.90
11093;DHT22;5600;50.864;6.102;2024-01-10T18:05:30;-3.80;99.90
11093;DHT22;5600;50.864;6.102;2024-01-10T18:08:31;-3.80;99.90
11093;DHT22;5600;50.864;6.102;2024-01-10T18:11:32;-3.80;99.90
11093;DHT22;5600;50.864;6.102;2024-01-10T18:14:33;-3.80;99.90
11093;DHT22;5600;50.864;6.102;2024-01-10T18:17:34;-3.80;99.90
11093;DHT22;5600;50.864;6.102;2024-01-10T18:20:35;-3.80;99.90
11093;DHT22;5600;50.864;6.102;2024-01-10T18:23:36;-3.90;99.90
11093;DHT22;5600;50.864;6.102;2024-01-10T18:26:37;-3.90;99.90
11093;DHT22;5600;50.864;6.102;2024-01-10T18:29:38;-4.00;99.90
11093;DHT22;5600;50.864;6.102;2024-01-10T18:32:39;-4.00;99.90
11093;DHT22;5600;50.864;6.102;2024-01-10T18:35:39;-4.10;99.90
11093;DHT22;5600;50.864;6.102;2024-01-10T18:38:40;-4.20;99.90
11093;DHT22;5600;50.864;6.102;2024-01-10T18:41:41;-4.20;99.90
11093;DHT22;5600;50.864;6.102;2024-01-10T18:44:43;-4.20;99.90
11093;DHT22;5600;50.864;6.102;2024-01-10T18:47:44;-4.20;99.90
11093;DHT22;5600;50.864;6.102;2024-01-10T18:50:45;-4.30;99.90
11093;DHT22;5600;50.864;6.102;2024-01-10T18:53:46;-4.30;99.90
11093;DHT22;5600;50.864;6.102;2024-01-10T18:56:47;-4.40;99.90
11093;DHT22;5600;50.864;6.102;2024-01-10T18:59:47;-4.40;99.90
11093;DHT22;5600;50.864;6.102;2024-01-10T19:02:50;-4.40;99.90
11093;DHT22;5600;50.864;6.102;2024-01-10T19:05:50;-4.50;99.90
11093;DHT22;5600;50.864;6.102;2024-01-10T19:08:51;-4.60;99.90
11093;DHT22;5600;50.864;6.102;2024-01-10T19:11:54;-4.60;99.90
11093;DHT22;5600;50.864;6.102;2024-01-10T19:14:54;-4.60;99.90
11093;DHT22;5600;50.864;6.102;2024-01-10T19:17:55;-4.60;99.90
11093;DHT22;5600;50.864;6.102;2024-01-10T19:20:56;-4.70;99.90
11093;DHT22;5600;50.864;6.102;2024-01-10T19:23:57;-4.70;99.90
11093;DHT22;5600;50.864;6.102;2024-01-10T19:26:58;-4.70;99.90
11093;DHT22;5600;50.864;6.102;2024-01-10T19:29:58;-4.70;99.90
11093;DHT22;5600;50.864;6.102;2024-01-10T19:32:59;-4.70;99.90
11093;DHT22;5600;50.864;6.102;2024-01-10T19:36:00;-4.90;99.90
11093;DHT22;5600;50.864;6.102;2024-01-10T19:39:01;-4.80;99.90
11093;DHT22;5600;50.864;6.102;2024-01-10T19:42:02;-4.80;99.90